Terminal Aerodrome Forecast
Issued by NWS St Louis, MO

Home | Current Version | Previous Version | Text Only | Print | Product List | Glossary On
Versions: 1 2 3 4 5 6 7 8 9
252
FTUS43 KLSX 242320
TAFCOU
TAF
KCOU 242320Z 2500/2524 15012G18KT P6SM FEW250
     FM250100 15010KT P6SM FEW250
     FM251500 16015G25KT P6SM BKN200=

USA.gov is the U.S. government's official web portal to all federal, state and local government web resources and services.